sensor_id;sensor_type;location;lat;lon;timestamp;temperature;humidity
66568;DHT22;53422;49.296;6.900;2023-11-25T00:00:25;5.00;99.90
66568;DHT22;53422;49.296;6.900;2023-11-25T00:02:53;5.00;99.90
66568;DHT22;53422;49.296;6.900;2023-11-25T00:05:19;5.10;99.90
66568;DHT22;53422;49.296;6.900;2023-11-25T00:07:46;5.00;99.90
66568;DHT22;53422;49.296;6.900;2023-11-25T00:10:12;5.00;99.90
66568;DHT22;53422;49.296;6.900;2023-11-25T00:12:37;5.00;99.90
66568;DHT22;53422;49.296;6.900;2023-11-25T00:15:04;5.00;99.90
66568;DHT22;53422;49.296;6.900;2023-11-25T00:17:29;5.00;99.90
66568;DHT22;53422;49.296;6.900;2023-11-25T00:19:57;5.10;99.90
66568;DHT22;53422;49.296;6.900;2023-11-25T00:22:23;5.10;99.90
66568;DHT22;53422;49.296;6.900;2023-11-25T00:24:49;5.10;99.90
66568;DHT22;53422;49.296;6.900;2023-11-25T00:27:15;5.10;99.90
66568;DHT22;53422;49.296;6.900;2023-11-25T00:29:41;5.10;99.90
66568;DHT22;53422;49.296;6.900;2023-11-25T00:32:07;5.10;99.90
66568;DHT22;53422;49.296;6.900;2023-11-25T00:34:33;5.10;99.90
66568;DHT22;53422;49.296;6.900;2023-11-25T00:36:58;5.10;99.90
66568;DHT22;53422;49.296;6.900;2023-11-25T00:39:24;5.10;99.90
66568;DHT22;53422;49.296;6.900;2023-11-25T00:41:50;5.10;99.90
66568;DHT22;53422;49.296;6.900;2023-11-25T00:44:15;5.10;99.90
66568;DHT22;53422;49.296;6.900;2023-11-25T00:46:41;5.10;99.90
66568;DHT22;53422;49.296;6.900;2023-11-25T00:49:08;5.10;99.90
66568;DHT22;53422;49.296;6.900;2023-11-25T00:51:36;5.10;99.90
66568;DHT22;53422;49.296;6.900;2023-11-25T00:54:03;5.10;99.90
66568;DHT22;53422;49.296;6.900;2023-11-25T00:56:30;5.00;99.90
66568;DHT22;53422;49.296;6.900;2023-11-25T00:58:56;5.00;99.90
66568;DHT22;53422;49.296;6.900;2023-11-25T01:01:22;4.90;99.90
66568;DHT22;53422;49.296;6.900;2023-11-25T01:03:48;4.90;99.90
66568;DHT22;53422;49.296;6.900;2023-11-25T01:06:13;4.90;99.90
66568;DHT22;53422;49.296;6.900;2023-11-25T01:08:39;4.90;99.90
66568;DHT22;53422;49.296;6.900;2023-11-25T01:11:05;4.90;99.90
66568;DHT22;53422;49.296;6.900;2023-11-25T01:13:31;4.90;99.90
66568;DHT22;53422;49.296;6.900;2023-11-25T01:15:56;4.90;99.90
66568;DHT22;53422;49.296;6.900;2023-11-25T01:18:22;4.90;99.90
66568;DHT22;53422;49.296;6.900;2023-11-25T01:20:47;4.90;99.90
66568;DHT22;53422;49.296;6.900;2023-11-25T01:23:13;4.90;99.90
66568;DHT22;53422;49.296;6.900;2023-11-25T01:25:41;4.90;99.90
66568;DHT22;53422;49.296;6.900;2023-11-25T01:28:07;4.90;99.90
66568;DHT22;53422;49.296;6.900;2023-11-25T01:30:33;4.90;99.90
66568;DHT22;53422;49.296;6.900;2023-11-25T01:32:59;4.90;99.90
66568;DHT22;53422;49.296;6.900;2023-11-25T01:35:28;4.80;99.90
66568;DHT22;53422;49.296;6.900;2023-11-25T01:37:53;4.90;99.90
66568;DHT22;53422;49.296;6.900;2023-11-25T01:40:20;4.90;99.90
66568;DHT22;53422;49.296;6.900;2023-11-25T01:42:49;4.90;99.90
66568;DHT22;53422;49.296;6.900;2023-11-25T01:45:14;4.90;99.90
66568;DHT22;53422;49.296;6.900;2023-11-25T01:47:41;4.80;99.90
66568;DHT22;53422;49.296;6.900;2023-11-25T01:50:07;4.80;99.90
66568;DHT22;53422;49.296;6.900;2023-11-25T01:52:34;4.80;99.90
66568;DHT22;53422;49.296;6.900;2023-11-25T01:55:01;4.80;99.90
66568;DHT22;53422;49.296;6.900;2023-11-25T01:57:28;4.80;99.90
66568;DHT22;53422;49.296;6.900;2023-11-25T01:59:56;4.90;99.90
66568;DHT22;53422;49.296;6.900;2023-11-25T02:02:25;4.80;99.90
66568;DHT22;53422;49.296;6.900;2023-11-25T02:04:52;4.90;99.90
66568;DHT22;53422;49.296;6.900;2023-11-25T02:07:17;4.80;99.90
66568;DHT22;53422;49.296;6.900;2023-11-25T02:09:43;4.80;99.90
66568;DHT22;53422;49.296;6.900;2023-11-25T02:12:09;4.80;99.90
66568;DHT22;53422;49.296;6.900;2023-11-25T02:14:36;4.70;99.90
66568;DHT22;53422;49.296;6.900;2023-11-25T02:17:04;4.70;99.90
66568;DHT22;53422;49.296;6.900;2023-11-25T02:19:31;4.70;99.90
66568;DHT22;53422;49.296;6.900;2023-11-25T02:22:00;4.70;99.90
66568;DHT22;53422;49.296;6.900;2023-11-25T02:24:26;4.70;99.90
66568;DHT22;53422;49.296;6.900;2023-11-25T02:26:59;4.70;99.90
66568;DHT22;53422;49.296;6.900;2023-11-25T02:29:26;4.60;99.90
66568;DHT22;53422;49.296;6.900;2023-11-25T02:31:52;4.60;99.90
66568;DHT22;53422;49.296;6.900;2023-11-25T02:34:17;4.60;99.90
66568;DHT22;53422;49.296;6.900;2023-11-25T02:36:43;4.60;99.90
66568;DHT22;53422;49.296;6.900;2023-11-25T02:39:10;4.50;99.90
66568;DHT22;53422;49.296;6.900;2023-11-25T02:41:35;4.50;99.90
66568;DHT22;53422;49.296;6.900;2023-11-25T02:44:02;4.50;99.90
66568;DHT22;53422;49.296;6.900;2023-11-25T02:46:27;4.40;99.90
66568;DHT22;53422;49.296;6.900;2023-11-25T02:48:54;4.50;99.90
66568;DHT22;53422;49.296;6.900;2023-11-25T02:51:19;4.50;99.90
66568;DHT22;53422;49.296;6.900;2023-11-25T02:53:45;4.50;99.90
66568;DHT22;53422;49.296;6.900;2023-11-25T02:56:11;4.50;99.90
66568;DHT22;53422;49.296;6.900;2023-11-25T02:58:37;4.60;99.90
66568;DHT22;53422;49.296;6.900;2023-11-25T03:01:03;4.60;99.90
66568;DHT22;53422;49.296;6.900;2023-11-25T03:03:37;4.60;99.90
66568;DHT22;53422;49.296;6.900;2023-11-25T03:06:07;4.60;99.90
66568;DHT22;53422;49.296;6.900;2023-11-25T03:08:33;4.50;99.90
66568;DHT22;53422;49.296;6.900;2023-11-25T03:11:00;4.50;99.90
66568;DHT22;53422;49.296;6.900;2023-11-25T03:13:26;4.60;99.90
66568;DHT22;53422;49.296;6.900;2023-11-25T03:15:51;4.60;99.90
66568;DHT22;53422;49.296;6.900;2023-11-25T03:18:19;4.60;99.90
66568;DHT22;53422;49.296;6.900;2023-11-25T03:20:45;4.60;99.90
66568;DHT22;53422;49.296;6.900;2023-11-25T03:23:11;4.60;99.90
66568;DHT22;53422;49.296;6.900;2023-11-25T03:25:37;4.60;99.90
66568;DHT22;53422;49.296;6.900;2023-11-25T03:28:04;4.60;99.90
66568;DHT22;53422;49.296;6.900;2023-11-25T03:30:33;4.60;99.90
66568;DHT22;53422;49.296;6.900;2023-11-25T03:32:58;4.60;99.90
66568;DHT22;53422;49.296;6.900;2023-11-25T03:35:24;4.50;99.90
66568;DHT22;53422;49.296;6.900;2023-11-25T03:37:50;4.60;99.90
66568;DHT22;53422;49.296;6.900;2023-11-25T03:40:16;4.50;99.90
66568;DHT22;53422;49.296;6.900;2023-11-25T03:42:43;4.50;99.90
66568;DHT22;53422;49.296;6.900;2023-11-25T03:45:11;4.50;99.90
66568;DHT22;53422;49.296;6.900;2023-11-25T03:47:41;4.50;99.90
66568;DHT22;53422;49.296;6.900;2023-11-25T03:50:08;4.50;99.90
66568;DHT22;53422;49.296;6.900;2023-11-25T03:52:34;4.50;99.90
66568;DHT22;53422;49.296;6.900;2023-11-25T03:55:00;4.50;99.90
66568;DHT22;53422;49.296;6.900;2023-11-25T03:57:28;4.50;99.90
66568;DHT22;53422;49.296;6.900;2023-11-25T03:59:53;4.50;99.90
66568;DHT22;53422;49.296;6.900;2023-11-25T04:02:19;4.50;99.90
66568;DHT22;53422;49.296;6.900;2023-11-25T04:04:45;4.50;99.90
66568;DHT22;53422;49.296;6.900;2023-11-25T04:07:11;4.50;99.90
66568;DHT22;53422;49.296;6.900;2023-11-25T04:09:37;4.50;99.90
66568;DHT22;53422;49.296;6.900;2023-11-25T04:12:03;4.50;99.90
66568;DHT22;53422;49.296;6.900;2023-11-25T04:14:29;4.40;99.90
66568;DHT22;53422;49.296;6.900;2023-11-25T04:16:55;4.50;99.90
66568;DHT22;53422;49.296;6.900;2023-11-25T04:19:22;4.50;99.90
66568;DHT22;53422;49.296;6.900;2023-11-25T04:21:47;4.50;99.90
66568;DHT22;53422;49.296;6.900;2023-11-25T04:24:16;4.50;99.90
66568;DHT22;53422;49.296;6.900;2023-11-25T04:26:43;4.50;99.90
66568;DHT22;53422;49.296;6.900;2023-11-25T04:29:08;4.40;99.90
66568;DHT22;53422;49.296;6.900;2023-11-25T04:31:35;4.50;99.90
66568;DHT22;53422;49.296;6.900;2023-11-25T04:34:05;4.50;99.90
66568;DHT22;53422;49.296;6.900;2023-11-25T04:36:31;4.50;99.90
66568;DHT22;53422;49.296;6.900;2023-11-25T04:38:58;4.50;99.90
66568;DHT22;53422;49.296;6.900;2023-11-25T04:41:25;4.50;99.90
66568;DHT22;53422;49.296;6.900;2023-11-25T04:43:51;4.50;99.90
66568;DHT22;53422;49.296;6.900;2023-11-25T04:46:16;4.50;99.90
66568;DHT22;53422;49.296;6.900;2023-11-25T04:48:42;4.50;99.90
66568;DHT22;53422;49.296;6.900;2023-11-25T04:51:08;4.50;99.90
66568;DHT22;53422;49.296;6.900;2023-11-25T04:53:34;4.50;99.90
66568;DHT22;53422;49.296;6.900;2023-11-25T04:56:00;4.50;99.90
66568;DHT22;53422;49.296;6.900;2023-11-25T04:58:25;4.50;99.90
66568;DHT22;53422;49.296;6.900;2023-11-25T05:00:51;4.50;99.90
66568;DHT22;53422;49.296;6.900;2023-11-25T05:03:17;4.50;99.90
66568;DHT22;53422;49.296;6.900;2023-11-25T05:05:42;4.50;99.90
66568;DHT22;53422;49.296;6.900;2023-11-25T05:08:08;4.50;99.90
66568;DHT22;53422;49.296;6.900;2023-11-25T05:10:34;4.50;99.90
66568;DHT22;53422;49.296;6.900;2023-11-25T05:12:59;4.50;99.90
66568;DHT22;53422;49.296;6.900;2023-11-25T05:15:25;4.50;99.90
66568;DHT22;53422;49.296;6.900;2023-11-25T05:17:54;4.50;99.90
66568;DHT22;53422;49.296;6.900;2023-11-25T05:20:19;4.50;99.90
66568;DHT22;53422;49.296;6.900;2023-11-25T05:22:45;4.60;99.90
66568;DHT22;53422;49.296;6.900;2023-11-25T05:25:11;4.60;99.90
66568;DHT22;53422;49.296;6.900;2023-11-25T05:27:39;4.60;99.90
66568;DHT22;53422;49.296;6.900;2023-11-25T05:30:05;4.60;99.90
66568;DHT22;53422;49.296;6.900;2023-11-25T05:32:31;4.50;99.90
66568;DHT22;53422;49.296;6.900;2023-11-25T05:34:57;4.60;99.90
66568;DHT22;53422;49.296;6.900;2023-11-25T05:37:23;4.60;99.90
66568;DHT22;53422;49.296;6.900;2023-11-25T05:39:48;4.60;99.90
66568;DHT22;53422;49.296;6.900;2023-11-25T05:42:16;4.60;99.90
66568;DHT22;53422;49.296;6.900;2023-11-25T05:44:49;4.50;99.90
66568;DHT22;53422;49.296;6.900;2023-11-25T05:47:14;4.50;99.90
66568;DHT22;53422;49.296;6.900;2023-11-25T05:49:40;4.50;99.90
66568;DHT22;53422;49.296;6.900;2023-11-25T05:52:06;4.50;99.90
66568;DHT22;53422;49.296;6.900;2023-11-25T05:54:32;4.50;99.90
66568;DHT22;53422;49.296;6.900;2023-11-25T05:56:58;4.50;99.90
66568;DHT22;53422;49.296;6.900;2023-11-25T05:59:23;4.50;99.90
66568;DHT22;53422;49.296;6.900;2023-11-25T06:01:49;4.60;99.90
66568;DHT22;53422;49.296;6.900;2023-11-25T06:04:14;4.50;99.90
66568;DHT22;53422;49.296;6.900;2023-11-25T06:06:40;4.50;99.90
66568;DHT22;53422;49.296;6.900;2023-11-25T06:09:06;4.60;99.90
66568;DHT22;53422;49.296;6.900;2023-11-25T06:11:37;4.60;99.90
66568;DHT22;53422;49.296;6.900;2023-11-25T06:14:03;4.60;99.90
66568;DHT22;53422;49.296;6.900;2023-11-25T06:16:28;4.60;99.90
66568;DHT22;53422;49.296;6.900;2023-11-25T06:18:57;4.50;99.90
66568;DHT22;53422;49.296;6.900;2023-11-25T06:21:23;4.60;99.90
66568;DHT22;53422;49.296;6.900;2023-11-25T06:23:49;4.60;99.90
66568;DHT22;53422;49.296;6.900;2023-11-25T06:26:16;4.50;99.90
66568;DHT22;53422;49.296;6.900;2023-11-25T06:28:47;4.60;99.90
66568;DHT22;53422;49.296;6.900;2023-11-25T06:31:14;4.60;99.90
66568;DHT22;53422;49.296;6.900;2023-11-25T06:33:40;4.50;99.90
66568;DHT22;53422;49.296;6.900;2023-11-25T06:36:07;4.50;99.90
66568;DHT22;53422;49.296;6.900;2023-11-25T06:38:33;4.50;99.90
66568;DHT22;53422;49.296;6.900;2023-11-25T06:40:59;4.60;99.90
66568;DHT22;53422;49.296;6.900;2023-11-25T06:43:27;4.60;99.90
66568;DHT22;53422;49.296;6.900;2023-11-25T06:45:53;4.60;99.90
66568;DHT22;53422;49.296;6.900;2023-11-25T06:48:19;4.50;99.90
66568;DHT22;53422;49.296;6.900;2023-11-25T06:50:45;4.50;99.90
66568;DHT22;53422;49.296;6.900;2023-11-25T06:53:11;4.50;99.90
66568;DHT22;53422;49.296;6.900;2023-11-25T06:55:36;4.60;99.90
66568;DHT22;53422;49.296;6.900;2023-11-25T06:58:13;4.50;99.90
66568;DHT22;53422;49.296;6.900;2023-11-25T07:00:39;4.50;99.90
66568;DHT22;53422;49.296;6.900;2023-11-25T07:03:05;4.50;99.90
66568;DHT22;53422;49.296;6.900;2023-11-25T07:05:31;4.50;99.90
66568;DHT22;53422;49.296;6.900;2023-11-25T07:07:57;4.50;99.90
66568;DHT22;53422;49.296;6.900;2023-11-25T07:10:23;4.50;99.90
66568;DHT22;53422;49.296;6.900;2023-11-25T07:12:49;4.50;99.90
66568;DHT22;53422;49.296;6.900;2023-11-25T07:15:15;4.50;99.90
66568;DHT22;53422;49.296;6.900;2023-11-25T07:17:42;4.50;99.90
66568;DHT22;53422;49.296;6.900;2023-11-25T07:20:08;4.50;99.90
66568;DHT22;53422;49.296;6.900;2023-11-25T07:22:41;4.50;99.90
66568;DHT22;53422;49.296;6.900;2023-11-25T07:25:07;4.50;99.90
66568;DHT22;53422;49.296;6.900;2023-11-25T07:27:38;4.50;99.90
66568;DHT22;53422;49.296;6.900;2023-11-25T07:30:05;4.50;99.90
66568;DHT22;53422;49.296;6.900;2023-11-25T07:32:32;4.40;99.90
66568;DHT22;53422;49.296;6.900;2023-11-25T07:34:57;4.40;99.90
66568;DHT22;53422;49.296;6.900;2023-11-25T07:37:23;4.50;99.90
66568;DHT22;53422;49.296;6.900;2023-11-25T07:39:49;4.40;99.90
66568;DHT22;53422;49.296;6.900;2023-11-25T07:42:14;4.40;99.90
66568;DHT22;53422;49.296;6.900;2023-11-25T07:44:40;4.40;99.90
66568;DHT22;53422;49.296;6.900;2023-11-25T07:47:08;4.40;99.90
66568;DHT22;53422;49.296;6.900;2023-11-25T07:49:33;4.40;99.90
66568;DHT22;53422;49.296;6.900;2023-11-25T07:51:59;4.40;99.90
66568;DHT22;53422;49.296;6.900;2023-11-25T07:54:25;4.40;99.90
66568;DHT22;53422;49.296;6.900;2023-11-25T07:56:50;4.50;99.90
66568;DHT22;53422;49.296;6.900;2023-11-25T07:59:16;4.50;99.90
66568;DHT22;53422;49.296;6.900;2023-11-25T08:01:42;4.40;99.90
66568;DHT22;53422;49.296;6.900;2023-11-25T08:04:07;4.40;99.90
66568;DHT22;53422;49.296;6.900;2023-11-25T08:06:33;4.40;99.90
66568;DHT22;53422;49.296;6.900;2023-11-25T08:09:00;4.40;99.90
66568;DHT22;53422;49.296;6.900;2023-11-25T08:11:28;4.40;99.90
66568;DHT22;53422;49.296;6.900;2023-11-25T08:13:55;4.40;99.90
66568;DHT22;53422;49.296;6.900;2023-11-25T08:16:20;4.40;99.90
66568;DHT22;53422;49.296;6.900;2023-11-25T08:18:47;4.40;99.90
66568;DHT22;53422;49.296;6.900;2023-11-25T08:21:15;4.40;99.90
66568;DHT22;53422;49.296;6.900;2023-11-25T08:23:42;4.40;99.90
66568;DHT22;53422;49.296;6.900;2023-11-25T08:26:21;4.40;99.90
66568;DHT22;53422;49.296;6.900;2023-11-25T08:28:49;4.40;99.90
66568;DHT22;53422;49.296;6.900;2023-11-25T08:31:15;4.40;99.90
66568;DHT22;53422;49.296;6.900;2023-11-25T08:33:40;4.40;99.90
66568;DHT22;53422;49.296;6.900;2023-11-25T08:36:08;4.40;99.90
66568;DHT22;53422;49.296;6.900;2023-11-25T08:38:33;4.40;99.90
66568;DHT22;53422;49.296;6.900;2023-11-25T08:41:00;4.40;99.90
66568;DHT22;53422;49.296;6.900;2023-11-25T08:43:26;4.40;99.90
66568;DHT22;53422;49.296;6.900;2023-11-25T08:45:52;4.50;99.90
66568;DHT22;53422;49.296;6.900;2023-11-25T08:48:19;4.50;99.90
66568;DHT22;53422;49.296;6.900;2023-11-25T08:50:45;4.50;99.90
66568;DHT22;53422;49.296;6.900;2023-11-25T08:53:10;4.50;99.90
66568;DHT22;53422;49.296;6.900;2023-11-25T08:55:36;4.50;99.90
66568;DHT22;53422;49.296;6.900;2023-11-25T08:58:02;4.60;99.90
66568;DHT22;53422;49.296;6.900;2023-11-25T09:00:28;4.50;99.90
66568;DHT22;53422;49.296;6.900;2023-11-25T09:02:54;4.60;99.90
66568;DHT22;53422;49.296;6.900;2023-11-25T09:05:23;4.50;99.90
66568;DHT22;53422;49.296;6.900;2023-11-25T09:07:53;4.60;99.90
66568;DHT22;53422;49.296;6.900;2023-11-25T09:10:21;4.60;99.90
66568;DHT22;53422;49.296;6.900;2023-11-25T09:12:48;4.60;99.90
66568;DHT22;53422;49.296;6.900;2023-11-25T09:15:14;4.70;99.90
66568;DHT22;53422;49.296;6.900;2023-11-25T09:17:40;4.60;99.90
66568;DHT22;53422;49.296;6.900;2023-11-25T09:20:08;4.60;99.90
66568;DHT22;53422;49.296;6.900;2023-11-25T09:22:38;4.60;99.90
66568;DHT22;53422;49.296;6.900;2023-11-25T09:25:04;4.60;99.90
66568;DHT22;53422;49.296;6.900;2023-11-25T09:27:30;4.60;99.90
66568;DHT22;53422;49.296;6.900;2023-11-25T09:29:56;4.70;99.90
66568;DHT22;53422;49.296;6.900;2023-11-25T09:32:22;4.60;99.90
66568;DHT22;53422;49.296;6.900;2023-11-25T09:34:48;4.60;99.90
66568;DHT22;53422;49.296;6.900;2023-11-25T09:37:14;4.70;99.90
66568;DHT22;53422;49.296;6.900;2023-11-25T09:39:40;4.70;99.90
66568;DHT22;53422;49.296;6.900;2023-11-25T09:42:06;4.70;99.90
66568;DHT22;53422;49.296;6.900;2023-11-25T09:44:35;4.60;99.90
66568;DHT22;53422;49.296;6.900;2023-11-25T09:47:00;4.70;99.90
66568;DHT22;53422;49.296;6.900;2023-11-25T09:49:27;4.80;99.90
66568;DHT22;53422;49.296;6.900;2023-11-25T09:51:54;4.80;99.90
66568;DHT22;53422;49.296;6.900;2023-11-25T09:54:21;4.80;99.90
66568;DHT22;53422;49.296;6.900;2023-11-25T09:56:50;4.80;99.90
66568;DHT22;53422;49.296;6.900;2023-11-25T09:59:16;4.90;99.90
66568;DHT22;53422;49.296;6.900;2023-11-25T10:01:45;4.80;99.90
66568;DHT22;53422;49.296;6.900;2023-11-25T10:04:12;4.80;99.90
66568;DHT22;53422;49.296;6.900;2023-11-25T10:06:39;4.90;99.90
66568;DHT22;53422;49.296;6.900;2023-11-25T10:09:05;4.90;99.90
66568;DHT22;53422;49.296;6.900;2023-11-25T10:11:35;4.90;99.90
66568;DHT22;53422;49.296;6.900;2023-11-25T10:14:01;4.90;99.90
66568;DHT22;53422;49.296;6.900;2023-11-25T10:16:29;4.90;99.90
66568;DHT22;53422;49.296;6.900;2023-11-25T10:18:55;4.90;99.90
66568;DHT22;53422;49.296;6.900;2023-11-25T10:21:23;4.90;99.90
66568;DHT22;53422;49.296;6.900;2023-11-25T10:23:50;4.90;99.90
66568;DHT22;53422;49.296;6.900;2023-11-25T10:26:17;5.00;99.90
66568;DHT22;53422;49.296;6.900;2023-11-25T10:28:45;5.00;99.90
66568;DHT22;53422;49.296;6.900;2023-11-25T10:31:13;5.00;99.90
66568;DHT22;53422;49.296;6.900;2023-11-25T10:33:42;5.00;99.90
66568;DHT22;53422;49.296;6.900;2023-11-25T10:36:09;5.00;99.90
66568;DHT22;53422;49.296;6.900;2023-11-25T10:38:39;5.10;99.90
66568;DHT22;53422;49.296;6.900;2023-11-25T10:41:05;5.10;99.90
66568;DHT22;53422;49.296;6.900;2023-11-25T10:43:32;5.10;99.90
66568;DHT22;53422;49.296;6.900;2023-11-25T10:46:07;5.10;99.90
66568;DHT22;53422;49.296;6.900;2023-11-25T10:48:37;5.10;99.90
66568;DHT22;53422;49.296;6.900;2023-11-25T10:51:05;5.10;99.90
66568;DHT22;53422;49.296;6.900;2023-11-25T10:53:31;5.10;99.90
66568;DHT22;53422;49.296;6.900;2023-11-25T10:56:00;5.10;99.90
66568;DHT22;53422;49.296;6.900;2023-11-25T10:58:27;5.10;99.90
66568;DHT22;53422;49.296;6.900;2023-11-25T11:00:56;5.00;99.90
66568;DHT22;53422;49.296;6.900;2023-11-25T11:06:15;5.10;99.90
66568;DHT22;53422;49.296;6.900;2023-11-25T11:08:46;5.10;99.90
66568;DHT22;53422;49.296;6.900;2023-11-25T11:11:29;5.10;99.90
66568;DHT22;53422;49.296;6.900;2023-11-25T11:14:10;5.10;99.90
66568;DHT22;53422;49.296;6.900;2023-11-25T11:19:14;5.00;99.90
66568;DHT22;53422;49.296;6.900;2023-11-25T11:21:43;5.10;99.90
66568;DHT22;53422;49.296;6.900;2023-11-25T11:24:12;5.10;99.90
66568;DHT22;53422;49.296;6.900;2023-11-25T11:26:56;5.10;99.90
66568;DHT22;53422;49.296;6.900;2023-11-25T11:29:35;5.20;99.90
66568;DHT22;53422;49.296;6.900;2023-11-25T11:32:03;5.20;99.90
66568;DHT22;53422;49.296;6.900;2023-11-25T11:34:35;5.20;99.90
66568;DHT22;53422;49.296;6.900;2023-11-25T11:37:02;5.20;99.90
66568;DHT22;53422;49.296;6.900;2023-11-25T11:39:37;5.20;99.90
66568;DHT22;53422;49.296;6.900;2023-11-25T11:42:27;5.30;99.90
66568;DHT22;53422;49.296;6.900;2023-11-25T11:47:59;5.20;99.90
66568;DHT22;53422;49.296;6.900;2023-11-25T11:50:31;5.20;99.90
66568;DHT22;53422;49.296;6.900;2023-11-25T11:55:32;5.30;99.90
66568;DHT22;53422;49.296;6.900;2023-11-25T11:58:11;5.30;99.90
66568;DHT22;53422;49.296;6.900;2023-11-25T12:00:40;5.30;99.90
66568;DHT22;53422;49.296;6.900;2023-11-25T12:03:08;5.30;99.90
66568;DHT22;53422;49.296;6.900;2023-11-25T12:05:34;5.30;99.90
66568;DHT22;53422;49.296;6.900;2023-11-25T12:08:01;5.40;99.90
66568;DHT22;53422;49.296;6.900;2023-11-25T12:10:26;5.40;99.90
66568;DHT22;53422;49.296;6.900;2023-11-25T12:12:52;5.40;99.90
66568;DHT22;53422;49.296;6.900;2023-11-25T12:15:19;5.30;99.90
66568;DHT22;53422;49.296;6.900;2023-11-25T12:17:45;5.30;99.90
66568;DHT22;53422;49.296;6.900;2023-11-25T12:20:14;5.40;99.90
66568;DHT22;53422;49.296;6.900;2023-11-25T12:22:41;5.30;99.90
66568;DHT22;53422;49.296;6.900;2023-11-25T12:25:07;5.30;99.90
66568;DHT22;53422;49.296;6.900;2023-11-25T12:30:30;5.40;99.90
66568;DHT22;53422;49.296;6.900;2023-11-25T12:32:56;5.40;99.90
66568;DHT22;53422;49.296;6.900;2023-11-25T12:35:22;5.40;99.90
66568;DHT22;53422;49.296;6.900;2023-11-25T12:37:49;5.40;99.90
66568;DHT22;53422;49.296;6.900;2023-11-25T12:40:21;5.40;99.90
66568;DHT22;53422;49.296;6.900;2023-11-25T12:42:49;5.50;99.90
66568;DHT22;53422;49.296;6.900;2023-11-25T12:45:34;5.50;99.90
66568;DHT22;53422;49.296;6.900;2023-11-25T12:48:01;5.50;99.90
66568;DHT22;53422;49.296;6.900;2023-11-25T12:50:28;5.50;99.90
66568;DHT22;53422;49.296;6.900;2023-11-25T12:53:10;5.50;99.90
66568;DHT22;53422;49.296;6.900;2023-11-25T12:55:40;5.40;99.90
66568;DHT22;53422;49.296;6.900;2023-11-25T12:58:08;5.40;99.90
66568;DHT22;53422;49.296;6.900;2023-11-25T13:00:35;5.40;99.90
66568;DHT22;53422;49.296;6.900;2023-11-25T13:03:01;5.40;99.90
66568;DHT22;53422;49.296;6.900;2023-11-25T13:05:31;5.50;99.90
66568;DHT22;53422;49.296;6.900;2023-11-25T13:07:58;5.50;99.90
66568;DHT22;53422;49.296;6.900;2023-11-25T13:10:24;5.40;99.90
66568;DHT22;53422;49.296;6.900;2023-11-25T13:12:49;5.50;99.90
66568;DHT22;53422;49.296;6.900;2023-11-25T13:15:15;5.50;99.90
66568;DHT22;53422;49.296;6.900;2023-11-25T13:17:42;5.50;99.90
66568;DHT22;53422;49.296;6.900;2023-11-25T13:20:08;5.60;99.90
66568;DHT22;53422;49.296;6.900;2023-11-25T13:22:37;5.60;99.90
66568;DHT22;53422;49.296;6.900;2023-11-25T13:25:04;5.60;99.90
66568;DHT22;53422;49.296;6.900;2023-11-25T13:27:31;5.60;99.90
66568;DHT22;53422;49.296;6.900;2023-11-25T13:29:56;5.70;99.90
66568;DHT22;53422;49.296;6.900;2023-11-25T13:32:22;5.60;99.90
66568;DHT22;53422;49.296;6.900;2023-11-25T13:34:47;5.70;99.90
66568;DHT22;53422;49.296;6.900;2023-11-25T13:37:13;5.70;99.90
66568;DHT22;53422;49.296;6.900;2023-11-25T13:39:39;5.50;99.90
66568;DHT22;53422;49.296;6.900;2023-11-25T13:42:05;5.60;99.90
66568;DHT22;53422;49.296;6.900;2023-11-25T13:44:31;5.70;99.90
66568;DHT22;53422;49.296;6.900;2023-11-25T13:46:56;5.70;99.90
66568;DHT22;53422;49.296;6.900;2023-11-25T13:49:22;5.90;99.90
66568;DHT22;53422;49.296;6.900;2023-11-25T13:51:48;5.90;99.90
66568;DHT22;53422;49.296;6.900;2023-11-25T13:54:14;5.90;99.90
66568;DHT22;53422;49.296;6.900;2023-11-25T13:56:41;5.90;99.90
66568;DHT22;53422;49.296;6.900;2023-11-25T13:59:06;5.90;99.90
66568;DHT22;53422;49.296;6.900;2023-11-25T14:01:32;6.00;99.90
66568;DHT22;53422;49.296;6.900;2023-11-25T14:03:58;5.90;99.90
66568;DHT22;53422;49.296;6.900;2023-11-25T14:06:26;5.90;99.90
66568;DHT22;53422;49.296;6.900;2023-11-25T14:08:54;5.80;99.90
66568;DHT22;53422;49.296;6.900;2023-11-25T14:11:29;5.80;99.90
66568;DHT22;53422;49.296;6.900;2023-11-25T14:14:23;5.70;99.90
66568;DHT22;53422;49.296;6.900;2023-11-25T14:16:50;5.70;99.90
66568;DHT22;53422;49.296;6.900;2023-11-25T14:19:16;5.60;99.90
66568;DHT22;53422;49.296;6.900;2023-11-25T14:21:45;5.60;99.90
66568;DHT22;53422;49.296;6.900;2023-11-25T14:24:10;5.70;99.90
66568;DHT22;53422;49.296;6.900;2023-11-25T14:26:36;5.60;99.90
66568;DHT22;53422;49.296;6.900;2023-11-25T14:29:03;5.60;99.90
66568;DHT22;53422;49.296;6.900;2023-11-25T14:31:28;5.40;99.90
66568;DHT22;53422;49.296;6.900;2023-11-25T14:33:58;5.40;99.90
66568;DHT22;53422;49.296;6.900;2023-11-25T14:36:27;5.40;99.90
66568;DHT22;53422;49.296;6.900;2023-11-25T14:38:53;5.50;99.90
66568;DHT22;53422;49.296;6.900;2023-11-25T14:41:22;5.50;99.90
66568;DHT22;53422;49.296;6.900;2023-11-25T14:43:51;5.50;99.90
66568;DHT22;53422;49.296;6.900;2023-11-25T14:46:17;5.50;99.90
66568;DHT22;53422;49.296;6.900;2023-11-25T14:48:44;5.50;99.90
66568;DHT22;53422;49.296;6.900;2023-11-25T14:51:10;5.50;99.90
66568;DHT22;53422;49.296;6.900;2023-11-25T14:53:36;5.50;99.90
66568;DHT22;53422;49.296;6.900;2023-11-25T14:56:05;5.50;99.90
66568;DHT22;53422;49.296;6.900;2023-11-25T14:58:32;5.60;99.90
66568;DHT22;53422;49.296;6.900;2023-11-25T15:00:58;5.60;99.90
66568;DHT22;53422;49.296;6.900;2023-11-25T15:03:24;5.60;99.90
66568;DHT22;53422;49.296;6.900;2023-11-25T15:05:52;5.50;99.90
66568;DHT22;53422;49.296;6.900;2023-11-25T15:08:18;5.50;99.90
66568;DHT22;53422;49.296;6.900;2023-11-25T15:10:44;5.50;99.90
66568;DHT22;53422;49.296;6.900;2023-11-25T15:13:13;5.50;99.90
66568;DHT22;53422;49.296;6.900;2023-11-25T15:15:38;5.50;99.90
66568;DHT22;53422;49.296;6.900;2023-11-25T15:18:04;5.50;99.90
66568;DHT22;53422;49.296;6.900;2023-11-25T15:20:30;5.50;99.90
66568;DHT22;53422;49.296;6.900;2023-11-25T15:22:57;5.50;99.90
66568;DHT22;53422;49.296;6.900;2023-11-25T15:25:23;5.50;99.90
66568;DHT22;53422;49.296;6.900;2023-11-25T15:27:48;5.50;99.90
66568;DHT22;53422;49.296;6.900;2023-11-25T15:30:14;5.50;99.90
66568;DHT22;53422;49.296;6.900;2023-11-25T15:32:41;5.50;99.90
66568;DHT22;53422;49.296;6.900;2023-11-25T15:35:08;5.50;99.90
66568;DHT22;53422;49.296;6.900;2023-11-25T15:37:34;5.50;99.90
66568;DHT22;53422;49.296;6.900;2023-11-25T15:40:00;5.40;99.90
66568;DHT22;53422;49.296;6.900;2023-11-25T15:42:25;5.30;99.90
66568;DHT22;53422;49.296;6.900;2023-11-25T15:44:51;5.30;99.90
66568;DHT22;53422;49.296;6.900;2023-11-25T15:47:17;5.30;99.90
66568;DHT22;53422;49.296;6.900;2023-11-25T15:49:44;5.20;99.90
66568;DHT22;53422;49.296;6.900;2023-11-25T15:52:10;5.20;99.90
66568;DHT22;53422;49.296;6.900;2023-11-25T15:54:35;5.20;99.90
66568;DHT22;53422;49.296;6.900;2023-11-25T15:57:01;5.20;99.90